sensor_id;sensor_type;location;lat;lon;timestamp;pressure;altitude;pressure_sealevel;temperature;humidity
64354;BME280;50681;53.334;-6.536;2023-12-20T00:00:48;101571.53;;;9.38;100.00
64354;BME280;50681;53.334;-6.536;2023-12-20T00:03:14;101577.75;;;9.71;100.00
64354;BME280;50681;53.334;-6.536;2023-12-20T00:05:39;101570.88;;;9.91;100.00
64354;BME280;50681;53.334;-6.536;2023-12-20T00:08:06;101560.00;;;9.80;100.00
64354;BME280;50681;53.334;-6.536;2023-12-20T00:10:31;101567.25;;;9.75;100.00
64354;BME280;50681;53.334;-6.536;2023-12-20T00:12:59;101562.22;;;9.89;100.00
64354;BME280;50681;53.334;-6.536;2023-12-20T00:15:24;101571.41;;;9.88;100.00
64354;BME280;50681;53.334;-6.536;2023-12-20T00:17:51;101571.53;;;10.08;100.00
64354;BME280;50681;53.334;-6.536;2023-12-20T00:20:16;101566.53;;;9.84;100.00
64354;BME280;50681;53.334;-6.536;2023-12-20T00:22:42;101568.19;;;10.39;100.00
64354;BME280;50681;53.334;-6.536;2023-12-20T00:25:08;101558.09;;;10.19;100.00
64354;BME280;50681;53.334;-6.536;2023-12-20T00:27:34;101556.75;;;10.21;100.00
64354;BME280;50681;53.334;-6.536;2023-12-20T00:29:59;101568.22;;;9.96;100.00
64354;BME280;50681;53.334;-6.536;2023-12-20T00:32:26;101558.41;;;10.27;100.00
64354;BME280;50681;53.334;-6.536;2023-12-20T00:34:51;101559.66;;;10.09;100.00
64354;BME280;50681;53.334;-6.536;2023-12-20T00:37:17;101559.25;;;9.90;100.00
64354;BME280;50681;53.334;-6.536;2023-12-20T00:39:42;101557.53;;;9.74;100.00
64354;BME280;50681;53.334;-6.536;2023-12-20T00:42:08;101556.69;;;9.68;100.00
64354;BME280;50681;53.334;-6.536;2023-12-20T00:44:34;101564.88;;;9.83;100.00
64354;BME280;50681;53.334;-6.536;2023-12-20T00:47:00;101570.34;;;9.94;100.00
64354;BME280;50681;53.334;-6.536;2023-12-20T00:49:26;101560.25;;;10.17;100.00
64354;BME280;50681;53.334;-6.536;2023-12-20T00:51:51;101570.44;;;10.52;100.00
64354;BME280;50681;53.334;-6.536;2023-12-20T00:54:18;101570.88;;;10.39;100.00
64354;BME280;50681;53.334;-6.536;2023-12-20T00:56:43;101565.16;;;9.87;100.00
64354;BME280;50681;53.334;-6.536;2023-12-20T00:59:09;101555.44;;;10.24;100.00
64354;BME280;50681;53.334;-6.536;2023-12-20T01:01:34;101552.66;;;10.13;100.00
64354;BME280;50681;53.334;-6.536;2023-12-20T01:04:00;101547.88;;;10.26;100.00
64354;BME280;50681;53.334;-6.536;2023-12-20T01:06:25;101549.53;;;10.32;100.00
64354;BME280;50681;53.334;-6.536;2023-12-20T01:08:50;101549.31;;;10.44;100.00
64354;BME280;50681;53.334;-6.536;2023-12-20T01:11:16;101559.69;;;10.14;100.00
64354;BME280;50681;53.334;-6.536;2023-12-20T01:13:41;101547.91;;;10.31;100.00
64354;BME280;50681;53.334;-6.536;2023-12-20T01:16:10;101557.53;;;10.17;100.00
64354;BME280;50681;53.334;-6.536;2023-12-20T01:18:35;101552.44;;;9.77;100.00
64354;BME280;50681;53.334;-6.536;2023-12-20T01:21:02;101569.09;;;10.55;100.00
64354;BME280;50681;53.334;-6.536;2023-12-20T01:23:28;101571.25;;;10.53;100.00
64354;BME280;50681;53.334;-6.536;2023-12-20T01:25:53;101553.44;;;10.62;100.00
64354;BME280;50681;53.334;-6.536;2023-12-20T01:28:22;101553.00;;;10.91;100.00
64354;BME280;50681;53.334;-6.536;2023-12-20T01:30:47;101542.47;;;10.95;100.00
64354;BME280;50681;53.334;-6.536;2023-12-20T01:33:13;101554.88;;;10.85;100.00
64354;BME280;50681;53.334;-6.536;2023-12-20T01:35:39;101550.84;;;11.03;100.00
64354;BME280;50681;53.334;-6.536;2023-12-20T01:38:05;101559.47;;;10.90;100.00
64354;BME280;50681;53.334;-6.536;2023-12-20T01:40:30;101548.72;;;11.31;100.00
64354;BME280;50681;53.334;-6.536;2023-12-20T01:43:08;101552.25;;;11.22;100.00
64354;BME280;50681;53.334;-6.536;2023-12-20T01:45:34;101554.38;;;11.09;100.00
64354;BME280;50681;53.334;-6.536;2023-12-20T01:48:04;101542.22;;;11.07;100.00
64354;BME280;50681;53.334;-6.536;2023-12-20T01:50:31;101557.34;;;11.13;100.00
64354;BME280;50681;53.334;-6.536;2023-12-20T01:52:57;101558.97;;;11.14;100.00
64354;BME280;50681;53.334;-6.536;2023-12-20T01:55:25;101540.63;;;11.37;100.00
64354;BME280;50681;53.334;-6.536;2023-12-20T01:57:50;101553.34;;;11.52;100.00
64354;BME280;50681;53.334;-6.536;2023-12-20T02:00:16;101549.81;;;11.41;100.00
64354;BME280;50681;53.334;-6.536;2023-12-20T02:02:44;101553.06;;;11.58;100.00
64354;BME280;50681;53.334;-6.536;2023-12-20T02:05:10;101553.06;;;11.32;100.00
64354;BME280;50681;53.334;-6.536;2023-12-20T02:07:36;101547.84;;;10.84;100.00
64354;BME280;50681;53.334;-6.536;2023-12-20T02:10:02;101546.28;;;11.09;100.00
64354;BME280;50681;53.334;-6.536;2023-12-20T02:12:29;101542.47;;;11.00;100.00
64354;BME280;50681;53.334;-6.536;2023-12-20T02:14:54;101543.84;;;11.08;100.00
64354;BME280;50681;53.334;-6.536;2023-12-20T02:17:20;101542.53;;;11.31;100.00
64354;BME280;50681;53.334;-6.536;2023-12-20T02:19:46;101536.03;;;11.58;100.00
64354;BME280;50681;53.334;-6.536;2023-12-20T02:22:12;101545.22;;;11.46;100.00
64354;BME280;50681;53.334;-6.536;2023-12-20T02:24:38;101541.44;;;11.73;100.00
64354;BME280;50681;53.334;-6.536;2023-12-20T02:27:05;101551.44;;;11.57;100.00
64354;BME280;50681;53.334;-6.536;2023-12-20T02:29:32;101564.69;;;11.74;100.00
64354;BME280;50681;53.334;-6.536;2023-12-20T02:31:58;101551.44;;;11.37;100.00
64354;BME280;50681;53.334;-6.536;2023-12-20T02:34:23;101561.72;;;11.45;100.00
64354;BME280;50681;53.334;-6.536;2023-12-20T02:36:50;101543.31;;;11.37;100.00
64354;BME280;50681;53.334;-6.536;2023-12-20T02:39:15;101546.00;;;11.83;100.00
64354;BME280;50681;53.334;-6.536;2023-12-20T02:41:40;101545.75;;;11.23;100.00
64354;BME280;50681;53.334;-6.536;2023-12-20T02:44:06;101536.28;;;11.10;100.00
64354;BME280;50681;53.334;-6.536;2023-12-20T02:46:31;101546.56;;;11.18;100.00
64354;BME280;50681;53.334;-6.536;2023-12-20T02:48:57;101547.91;;;11.21;100.00
64354;BME280;50681;53.334;-6.536;2023-12-20T02:51:22;101552.25;;;11.27;100.00
64354;BME280;50681;53.334;-6.536;2023-12-20T02:53:47;101547.63;;;11.17;100.00
64354;BME280;50681;53.334;-6.536;2023-12-20T02:56:13;101557.94;;;11.61;100.00
64354;BME280;50681;53.334;-6.536;2023-12-20T02:58:40;101531.72;;;11.31;100.00
64354;BME280;50681;53.334;-6.536;2023-12-20T03:01:06;101560.34;;;11.94;100.00
64354;BME280;50681;53.334;-6.536;2023-12-20T03:03:31;101548.19;;;11.45;100.00
64354;BME280;50681;53.334;-6.536;2023-12-20T03:05:57;101553.06;;;11.74;100.00
64354;BME280;50681;53.334;-6.536;2023-12-20T03:08:23;101552.78;;;12.01;100.00
64354;BME280;50681;53.334;-6.536;2023-12-20T03:10:48;101549.53;;;12.04;100.00
64354;BME280;50681;53.334;-6.536;2023-12-20T03:13:14;101550.28;;;12.26;100.00
64354;BME280;50681;53.334;-6.536;2023-12-20T03:15:39;101555.47;;;12.12;100.00
64354;BME280;50681;53.334;-6.536;2023-12-20T03:18:05;101546.28;;;11.09;100.00
64354;BME280;50681;53.334;-6.536;2023-12-20T03:20:30;101545.78;;;11.49;100.00
64354;BME280;50681;53.334;-6.536;2023-12-20T03:23:02;101536.56;;;11.24;100.00
64354;BME280;50681;53.334;-6.536;2023-12-20T03:25:27;101520.34;;;11.29;100.00
64354;BME280;50681;53.334;-6.536;2023-12-20T03:27:53;101523.06;;;11.55;100.00
64354;BME280;50681;53.334;-6.536;2023-12-20T03:30:18;101533.03;;;11.70;100.00
64354;BME280;50681;53.334;-6.536;2023-12-20T03:32:44;101528.63;;;12.15;100.00
64354;BME280;50681;53.334;-6.536;2023-12-20T03:35:10;101529.78;;;11.78;100.00
64354;BME280;50681;53.334;-6.536;2023-12-20T03:37:36;101539.28;;;11.60;100.00
64354;BME280;50681;53.334;-6.536;2023-12-20T03:40:02;101529.81;;;11.57;100.00
64354;BME280;50681;53.334;-6.536;2023-12-20T03:42:28;101534.97;;;11.43;100.00
64354;BME280;50681;53.334;-6.536;2023-12-20T03:44:53;101532.22;;;11.74;100.00
64354;BME280;50681;53.334;-6.536;2023-12-20T03:47:18;101521.97;;;11.66;100.00
64354;BME280;50681;53.334;-6.536;2023-12-20T03:49:44;101521.44;;;11.33;100.00
64354;BME280;50681;53.334;-6.536;2023-12-20T03:52:09;101544.94;;;11.58;100.00
64354;BME280;50681;53.334;-6.536;2023-12-20T03:54:35;101523.31;;;11.48;100.00
64354;BME280;50681;53.334;-6.536;2023-12-20T03:57:00;101528.19;;;11.25;100.00
64354;BME280;50681;53.334;-6.536;2023-12-20T03:59:26;101530.03;;;10.88;100.00
64354;BME280;50681;53.334;-6.536;2023-12-20T04:01:51;101525.72;;;11.03;100.00
64354;BME280;50681;53.334;-6.536;2023-12-20T04:04:17;101520.56;;;11.79;100.00
64354;BME280;50681;53.334;-6.536;2023-12-20T04:06:42;101523.59;;;11.15;100.00
64354;BME280;50681;53.334;-6.536;2023-12-20T04:09:08;101520.91;;;11.46;100.00
64354;BME280;50681;53.334;-6.536;2023-12-20T04:11:37;101521.63;;;11.94;100.00
64354;BME280;50681;53.334;-6.536;2023-12-20T04:14:02;101518.72;;;11.59;100.00
64354;BME280;50681;53.334;-6.536;2023-12-20T04:16:30;101535.50;;;11.45;100.00
64354;BME280;50681;53.334;-6.536;2023-12-20T04:18:55;101543.59;;;11.45;100.00
64354;BME280;50681;53.334;-6.536;2023-12-20T04:21:21;101534.41;;;11.41;100.00
64354;BME280;50681;53.334;-6.536;2023-12-20T04:23:46;101537.66;;;11.38;100.00
64354;BME280;50681;53.334;-6.536;2023-12-20T04:26:11;101544.16;;;11.53;100.00
64354;BME280;50681;53.334;-6.536;2023-12-20T04:28:37;101545.22;;;11.36;100.00
64354;BME280;50681;53.334;-6.536;2023-12-20T04:31:02;101531.94;;;11.76;100.00
64354;BME280;50681;53.334;-6.536;2023-12-20T04:33:28;101528.69;;;11.74;100.00
64354;BME280;50681;53.334;-6.536;2023-12-20T04:35:53;101530.59;;;11.84;100.00
64354;BME280;50681;53.334;-6.536;2023-12-20T04:38:19;101512.66;;;12.19;100.00
64354;BME280;50681;53.334;-6.536;2023-12-20T04:40:44;101496.72;;;11.97;100.00
64354;BME280;50681;53.334;-6.536;2023-12-20T04:43:10;101487.84;;;12.57;100.00
64354;BME280;50681;53.334;-6.536;2023-12-20T04:45:35;101497.22;;;12.19;100.00
64354;BME280;50681;53.334;-6.536;2023-12-20T04:48:02;101501.34;;;12.62;100.00
64354;BME280;50681;53.334;-6.536;2023-12-20T04:50:27;101516.13;;;12.30;100.00
64354;BME280;50681;53.334;-6.536;2023-12-20T04:52:53;101533.00;;;11.90;100.00
64354;BME280;50681;53.334;-6.536;2023-12-20T04:55:18;101520.53;;;12.10;100.00
64354;BME280;50681;53.334;-6.536;2023-12-20T04:57:44;101529.19;;;12.12;100.00
64354;BME280;50681;53.334;-6.536;2023-12-20T05:00:09;101514.50;;;12.34;100.00
64354;BME280;50681;53.334;-6.536;2023-12-20T05:02:36;101505.34;;;12.19;100.00
64354;BME280;50681;53.334;-6.536;2023-12-20T05:05:01;101516.03;;;13.01;100.00
64354;BME280;50681;53.334;-6.536;2023-12-20T05:07:27;101500.22;;;12.18;100.00
64354;BME280;50681;53.334;-6.536;2023-12-20T05:09:52;101516.50;;;12.08;100.00
64354;BME280;50681;53.334;-6.536;2023-12-20T05:12:19;101518.81;;;12.40;100.00
64354;BME280;50681;53.334;-6.536;2023-12-20T05:14:44;101519.13;;;12.28;100.00
64354;BME280;50681;53.334;-6.536;2023-12-20T05:17:10;101499.50;;;11.66;100.00
64354;BME280;50681;53.334;-6.536;2023-12-20T05:19:35;101503.81;;;11.61;100.00
64354;BME280;50681;53.334;-6.536;2023-12-20T05:22:03;101511.72;;;12.49;100.00
64354;BME280;50681;53.334;-6.536;2023-12-20T05:24:29;101484.56;;;11.89;100.00
64354;BME280;50681;53.334;-6.536;2023-12-20T05:26:54;101486.66;;;12.23;100.00
64354;BME280;50681;53.334;-6.536;2023-12-20T05:29:20;101482.19;;;11.61;100.00
64354;BME280;50681;53.334;-6.536;2023-12-20T05:31:46;101484.34;;;11.70;100.00
64354;BME280;50681;53.334;-6.536;2023-12-20T05:34:11;101493.56;;;11.48;100.00
64354;BME280;50681;53.334;-6.536;2023-12-20T05:36:37;101491.94;;;11.57;100.00
64354;BME280;50681;53.334;-6.536;2023-12-20T05:39:03;101485.19;;;11.55;100.00
64354;BME280;50681;53.334;-6.536;2023-12-20T05:41:33;101491.91;;;11.73;100.00
64354;BME280;50681;53.334;-6.536;2023-12-20T05:43:58;101500.03;;;11.68;100.00
64354;BME280;50681;53.334;-6.536;2023-12-20T05:46:25;101484.88;;;11.77;100.00
64354;BME280;50681;53.334;-6.536;2023-12-20T05:48:50;101486.22;;;11.85;100.00
64354;BME280;50681;53.334;-6.536;2023-12-20T05:51:17;101477.25;;;12.00;100.00
64354;BME280;50681;53.334;-6.536;2023-12-20T05:53:43;101475.06;;;11.97;100.00
64354;BME280;50681;53.334;-6.536;2023-12-20T05:56:09;101482.09;;;12.08;100.00
64354;BME280;50681;53.334;-6.536;2023-12-20T05:58:35;101464.03;;;11.83;100.00
64354;BME280;50681;53.334;-6.536;2023-12-20T06:01:00;101471.84;;;11.89;100.00
64354;BME280;50681;53.334;-6.536;2023-12-20T06:03:26;101451.41;;;12.33;100.00
64354;BME280;50681;53.334;-6.536;2023-12-20T06:05:52;101442.59;;;12.02;100.00
64354;BME280;50681;53.334;-6.536;2023-12-20T06:08:18;101445.59;;;12.56;100.00
64354;BME280;50681;53.334;-6.536;2023-12-20T06:10:44;101446.59;;;12.25;100.00
64354;BME280;50681;53.334;-6.536;2023-12-20T06:13:09;101444.19;;;12.08;100.00
64354;BME280;50681;53.334;-6.536;2023-12-20T06:15:35;101441.97;;;12.26;100.00
64354;BME280;50681;53.334;-6.536;2023-12-20T06:18:00;101455.56;;;12.66;100.00
64354;BME280;50681;53.334;-6.536;2023-12-20T06:20:26;101451.91;;;12.86;100.00
64354;BME280;50681;53.334;-6.536;2023-12-20T06:22:51;101446.22;;;12.37;100.00
64354;BME280;50681;53.334;-6.536;2023-12-20T06:25:17;101440.25;;;12.40;100.00
64354;BME280;50681;53.334;-6.536;2023-12-20T06:27:43;101443.50;;;12.87;100.00
64354;BME280;50681;53.334;-6.536;2023-12-20T06:30:09;101428.81;;;12.03;100.00
64354;BME280;50681;53.334;-6.536;2023-12-20T06:32:35;101424.94;;;12.20;100.00
64354;BME280;50681;53.334;-6.536;2023-12-20T06:35:01;101457.72;;;12.08;100.00
64354;BME280;50681;53.334;-6.536;2023-12-20T06:37:26;101451.81;;;12.01;100.00
64354;BME280;50681;53.334;-6.536;2023-12-20T06:39:51;101459.72;;;12.47;100.00
64354;BME280;50681;53.334;-6.536;2023-12-20T06:42:18;101453.09;;;12.19;100.00
64354;BME280;50681;53.334;-6.536;2023-12-20T06:44:43;101449.50;;;12.34;100.00
64354;BME280;50681;53.334;-6.536;2023-12-20T06:47:09;101432.16;;;12.35;100.00
64354;BME280;50681;53.334;-6.536;2023-12-20T06:49:34;101449.88;;;12.17;100.00
64354;BME280;50681;53.334;-6.536;2023-12-20T06:51:59;101473.94;;;12.18;100.00
64354;BME280;50681;53.334;-6.536;2023-12-20T06:54:25;101475.91;;;11.92;100.00
64354;BME280;50681;53.334;-6.536;2023-12-20T06:56:50;101484.56;;;11.99;100.00
64354;BME280;50681;53.334;-6.536;2023-12-20T06:59:16;101482.41;;;12.01;100.00
64354;BME280;50681;53.334;-6.536;2023-12-20T07:01:41;101468.31;;;12.04;100.00
64354;BME280;50681;53.334;-6.536;2023-12-20T07:04:07;101466.41;;;12.05;100.00
64354;BME280;50681;53.334;-6.536;2023-12-20T07:06:32;101459.13;;;12.05;100.00
64354;BME280;50681;53.334;-6.536;2023-12-20T07:08:58;101445.13;;;12.43;100.00
64354;BME280;50681;53.334;-6.536;2023-12-20T07:11:26;101458.72;;;12.28;100.00
64354;BME280;50681;53.334;-6.536;2023-12-20T07:13:51;101442.50;;;12.23;100.00
64354;BME280;50681;53.334;-6.536;2023-12-20T07:16:16;101458.41;;;12.40;100.00
64354;BME280;50681;53.334;-6.536;2023-12-20T07:18:42;101447.63;;;12.34;100.00
64354;BME280;50681;53.334;-6.536;2023-12-20T07:21:07;101456.72;;;12.54;100.00
64354;BME280;50681;53.334;-6.536;2023-12-20T07:23:33;101459.38;;;12.04;100.00
64354;BME280;50681;53.334;-6.536;2023-12-20T07:25:58;101469.97;;;11.85;100.00
64354;BME280;50681;53.334;-6.536;2023-12-20T07:28:24;101452.63;;;11.96;100.00
64354;BME280;50681;53.334;-6.536;2023-12-20T07:30:50;101463.63;;;12.26;100.00
64354;BME280;50681;53.334;-6.536;2023-12-20T07:33:15;101463.16;;;12.08;100.00
64354;BME280;50681;53.334;-6.536;2023-12-20T07:35:41;101459.66;;;12.58;100.00
64354;BME280;50681;53.334;-6.536;2023-12-20T07:38:06;101451.75;;;12.16;100.00
64354;BME280;50681;53.334;-6.536;2023-12-20T07:40:32;101445.28;;;12.07;100.00
64354;BME280;50681;53.334;-6.536;2023-12-20T07:42:59;101435.97;;;12.34;100.00
64354;BME280;50681;53.334;-6.536;2023-12-20T07:45:25;101438.38;;;12.41;100.00
64354;BME280;50681;53.334;-6.536;2023-12-20T07:48:00;101410.78;;;12.73;100.00
64354;BME280;50681;53.334;-6.536;2023-12-20T07:50:25;101399.59;;;12.45;100.00
64354;BME280;50681;53.334;-6.536;2023-12-20T07:52:51;101400.75;;;12.79;100.00
64354;BME280;50681;53.334;-6.536;2023-12-20T07:55:16;101389.56;;;12.51;100.00
64354;BME280;50681;53.334;-6.536;2023-12-20T07:57:42;101386.06;;;12.45;100.00
64354;BME280;50681;53.334;-6.536;2023-12-20T08:00:08;101384.84;;;12.27;100.00
64354;BME280;50681;53.334;-6.536;2023-12-20T08:02:35;101389.81;;;12.49;100.00
64354;BME280;50681;53.334;-6.536;2023-12-20T08:05:00;101399.16;;;12.28;100.00
64354;BME280;50681;53.334;-6.536;2023-12-20T08:07:25;101393.75;;;12.28;100.00
64354;BME280;50681;53.334;-6.536;2023-12-20T08:09:51;101412.75;;;12.17;100.00
64354;BME280;50681;53.334;-6.536;2023-12-20T08:12:17;101403.53;;;12.18;100.00
64354;BME280;50681;53.334;-6.536;2023-12-20T08:14:42;101408.16;;;12.63;100.00
64354;BME280;50681;53.334;-6.536;2023-12-20T08:17:07;101398.56;;;12.36;100.00
64354;BME280;50681;53.334;-6.536;2023-12-20T08:19:33;101415.78;;;12.56;100.00
64354;BME280;50681;53.334;-6.536;2023-12-20T08:21:58;101398.97;;;12.59;100.00
64354;BME280;50681;53.334;-6.536;2023-12-20T08:24:24;101387.69;;;12.46;100.00
64354;BME280;50681;53.334;-6.536;2023-12-20T08:26:49;101404.28;;;12.74;100.00
64354;BME280;50681;53.334;-6.536;2023-12-20T08:29:14;101405.47;;;12.58;100.00
64354;BME280;50681;53.334;-6.536;2023-12-20T08:31:40;101419.56;;;12.60;100.00
64354;BME280;50681;53.334;-6.536;2023-12-20T08:34:05;101419.59;;;12.94;100.00
64354;BME280;50681;53.334;-6.536;2023-12-20T08:36:31;101410.81;;;12.68;100.00
64354;BME280;50681;53.334;-6.536;2023-12-20T08:38:56;101424.91;;;12.70;100.00
64354;BME280;50681;53.334;-6.536;2023-12-20T08:41:21;101433.00;;;12.75;100.00
64354;BME280;50681;53.334;-6.536;2023-12-20T08:43:47;101431.22;;;12.60;100.00
64354;BME280;50681;53.334;-6.536;2023-12-20T08:46:14;101428.63;;;13.14;100.00
64354;BME280;50681;53.334;-6.536;2023-12-20T08:48:39;101425.50;;;13.31;100.00
64354;BME280;50681;53.334;-6.536;2023-12-20T08:51:05;101412.16;;;13.35;100.00
64354;BME280;50681;53.334;-6.536;2023-12-20T08:53:33;101425.53;;;13.26;100.00
64354;BME280;50681;53.334;-6.536;2023-12-20T08:55:59;101417.53;;;13.11;100.00
64354;BME280;50681;53.334;-6.536;2023-12-20T08:58:31;101412.81;;;12.92;100.00
64354;BME280;50681;53.334;-6.536;2023-12-20T09:00:58;101393.63;;;12.88;100.00
64354;BME280;50681;53.334;-6.536;2023-12-20T09:03:24;101405.00;;;12.50;100.00
64354;BME280;50681;53.334;-6.536;2023-12-20T09:05:49;101399.34;;;12.47;100.00
64354;BME280;50681;53.334;-6.536;2023-12-20T09:08:14;101394.00;;;12.71;100.00
64354;BME280;50681;53.334;-6.536;2023-12-20T09:10:40;101399.72;;;12.25;100.00
64354;BME280;50681;53.334;-6.536;2023-12-20T09:13:07;101381.63;;;12.60;100.00
64354;BME280;50681;53.334;-6.536;2023-12-20T09:15:32;101369.72;;;13.49;100.00
64354;BME280;50681;53.334;-6.536;2023-12-20T09:18:03;101345.81;;;12.68;100.00
64354;BME280;50681;53.334;-6.536;2023-12-20T09:20:29;101328.13;;;13.05;100.00
64354;BME280;50681;53.334;-6.536;2023-12-20T09:22:54;101340.72;;;12.61;100.00
64354;BME280;50681;53.334;-6.536;2023-12-20T09:25:20;101325.69;;;12.74;100.00
64354;BME280;50681;53.334;-6.536;2023-12-20T09:27:45;101337.00;;;12.82;100.00
64354;BME280;50681;53.334;-6.536;2023-12-20T09:30:12;101328.88;;;12.82;100.00
64354;BME280;50681;53.334;-6.536;2023-12-20T09:32:37;101339.63;;;12.92;100.00
64354;BME280;50681;53.334;-6.536;2023-12-20T09:35:03;101338.06;;;12.86;100.00
64354;BME280;50681;53.334;-6.536;2023-12-20T09:37:30;101323.47;;;12.82;100.00
64354;BME280;50681;53.334;-6.536;2023-12-20T09:39:56;101315.19;;;12.97;100.00
64354;BME280;50681;53.334;-6.536;2023-12-20T09:42:38;101304.66;;;13.20;100.00
64354;BME280;50681;53.334;-6.536;2023-12-20T09:45:08;101311.94;;;12.95;100.00
64354;BME280;50681;53.334;-6.536;2023-12-20T09:47:35;101313.81;;;12.70;100.00
64354;BME280;50681;53.334;-6.536;2023-12-20T09:50:01;101313.53;;;12.72;100.00
64354;BME280;50681;53.334;-6.536;2023-12-20T09:52:27;101302.13;;;12.75;100.00
64354;BME280;50681;53.334;-6.536;2023-12-20T09:54:53;101294.50;;;12.47;100.00
64354;BME280;50681;53.334;-6.536;2023-12-20T09:57:20;101296.41;;;12.47;100.00
64354;BME280;50681;53.334;-6.536;2023-12-20T09:59:46;101300.03;;;13.20;100.00
64354;BME280;50681;53.334;-6.536;2023-12-20T10:02:13;101292.72;;;13.21;100.00
64354;BME280;50681;53.334;-6.536;2023-12-20T10:04:46;101278.88;;;13.47;100.00
64354;BME280;50681;53.334;-6.536;2023-12-20T10:07:15;101276.16;;;13.22;100.00
64354;BME280;50681;53.334;-6.536;2023-12-20T10:09:41;101264.41;;;12.78;100.00
64354;BME280;50681;53.334;-6.536;2023-12-20T10:12:07;101271.31;;;12.66;100.00
64354;BME280;50681;53.334;-6.536;2023-12-20T10:14:33;101244.88;;;12.82;100.00
64354;BME280;50681;53.334;-6.536;2023-12-20T10:17:05;101246.78;;;13.05;100.00
64354;BME280;50681;53.334;-6.536;2023-12-20T10:19:32;101249.31;;;13.21;100.00
64354;BME280;50681;53.334;-6.536;2023-12-20T10:21:58;101259.53;;;13.05;100.00
64354;BME280;50681;53.334;-6.536;2023-12-20T10:24:45;101271.19;;;13.05;100.00
64354;BME280;50681;53.334;-6.536;2023-12-20T10:27:11;101276.44;;;12.97;100.00
64354;BME280;50681;53.334;-6.536;2023-12-20T10:29:37;101272.84;;;13.01;100.00
64354;BME280;50681;53.334;-6.536;2023-12-20T10:32:25;101270.66;;;13.52;100.00
64354;BME280;50681;53.334;-6.536;2023-12-20T10:34:51;101274.63;;;12.87;100.00
64354;BME280;50681;53.334;-6.536;2023-12-20T10:37:17;101274.88;;;13.15;100.00
64354;BME280;50681;53.334;-6.536;2023-12-20T10:39:43;101280.09;;;12.82;100.00
64354;BME280;50681;53.334;-6.536;2023-12-20T10:42:13;101288.91;;;13.22;100.00
64354;BME280;50681;53.334;-6.536;2023-12-20T10:44:39;101288.91;;;12.98;100.00
64354;BME280;50681;53.334;-6.536;2023-12-20T10:47:05;101292.75;;;12.62;100.00
64354;BME280;50681;53.334;-6.536;2023-12-20T10:49:36;101292.59;;;13.31;100.00
64354;BME280;50681;53.334;-6.536;2023-12-20T10:52:03;101301.47;;;13.13;100.00
64354;BME280;50681;53.334;-6.536;2023-12-20T10:54:31;101302.28;;;13.37;100.00
64354;BME280;50681;53.334;-6.536;2023-12-20T10:56:59;101297.81;;;12.98;100.00
64354;BME280;50681;53.334;-6.536;2023-12-20T10:59:27;101288.31;;;13.49;100.00
64354;BME280;50681;53.334;-6.536;2023-12-20T11:01:55;101299.91;;;13.06;100.00
64354;BME280;50681;53.334;-6.536;2023-12-20T11:04:28;101293.75;;;13.49;100.00
64354;BME280;50681;53.334;-6.536;2023-12-20T11:07:08;101279.09;;;13.02;100.00
64354;BME280;50681;53.334;-6.536;2023-12-20T11:09:45;101291.94;;;12.91;100.00
64354;BME280;50681;53.334;-6.536;2023-12-20T11:12:20;101292.94;;;13.49;100.00
64354;BME280;50681;53.334;-6.536;2023-12-20T11:15:01;101304.22;;;13.32;100.00
64354;BME280;50681;53.334;-6.536;2023-12-20T11:20:38;101284.50;;;13.26;100.00
64354;BME280;50681;53.334;-6.536;2023-12-20T11:23:09;101268.72;;;13.09;100.00
64354;BME280;50681;53.334;-6.536;2023-12-20T11:25:48;101238.50;;;13.40;100.00
64354;BME280;50681;53.334;-6.536;2023-12-20T11:28:15;101253.31;;;13.91;100.00
64354;BME280;50681;53.334;-6.536;2023-12-20T11:30:50;101228.97;;;13.23;100.00
64354;BME280;50681;53.334;-6.536;2023-12-20T11:33:16;101221.91;;;13.47;100.00
64354;BME280;50681;53.334;-6.536;2023-12-20T11:35:50;101225.06;;;13.54;100.00
64354;BME280;50681;53.334;-6.536;2023-12-20T11:38:16;101223.59;;;13.81;100.00
64354;BME280;50681;53.334;-6.536;2023-12-20T11:40:43;101220.06;;;14.00;100.00
64354;BME280;50681;53.334;-6.536;2023-12-20T11:43:09;101230.59;;;14.01;100.00
64354;BME280;50681;53.334;-6.536;2023-12-20T11:45:34;101210.91;;;13.57;100.00
64354;BME280;50681;53.334;-6.536;2023-12-20T11:48:01;101208.47;;;14.27;100.00
64354;BME280;50681;53.334;-6.536;2023-12-20T11:50:27;101197.22;;;14.48;100.00
64354;BME280;50681;53.334;-6.536;2023-12-20T11:52:53;101189.41;;;13.80;100.00
64354;BME280;50681;53.334;-6.536;2023-12-20T11:55:21;101217.03;;;14.01;100.00
64354;BME280;50681;53.334;-6.536;2023-12-20T11:57:46;101218.28;;;14.09;100.00
64354;BME280;50681;53.334;-6.536;2023-12-20T12:00:15;101219.38;;;14.41;100.00
64354;BME280;50681;53.334;-6.536;2023-12-20T12:02:41;101213.69;;;14.23;100.00
64354;BME280;50681;53.334;-6.536;2023-12-20T12:05:07;101193.06;;;14.22;100.00
64354;BME280;50681;53.334;-6.536;2023-12-20T12:07:34;101188.28;;;14.47;100.00
64354;BME280;50681;53.334;-6.536;2023-12-20T12:10:17;101187.81;;;14.12;100.00
64354;BME280;50681;53.334;-6.536;2023-12-20T12:12:48;101193.06;;;13.70;100.00
64354;BME280;50681;53.334;-6.536;2023-12-20T12:15:14;101188.25;;;14.00;100.00
64354;BME280;50681;53.334;-6.536;2023-12-20T12:17:40;101183.00;;;13.32;100.00
64354;BME280;50681;53.334;-6.536;2023-12-20T12:20:06;101182.81;;;13.48;100.00
64354;BME280;50681;53.334;-6.536;2023-12-20T12:22:36;101208.66;;;14.64;100.00
64354;BME280;50681;53.334;-6.536;2023-12-20T12:25:12;101180.75;;;14.44;100.00
64354;BME280;50681;53.334;-6.536;2023-12-20T12:27:41;101197.50;;;14.18;100.00
64354;BME280;50681;53.334;-6.536;2023-12-20T12:30:08;101200.34;;;14.41;100.00